• Join FlightAware (Why Join?)
  • Login
  • US Flag 
12:28AM EDT


 

Airport Tracker/Info


-or-


 

Live Flight TrackerFlight Track Log ✈ QFA490 ✈ 28-Apr-2012 ✈ YMML / MEL - YSSY / SYD

Flight Track Log - Related Links

Times and Time Zones

All times are in EDT time to prevent confusion due to time zone crossing. See the QFA490 flight status page for this flight to view local times or setup timezone preferences in your user account.

Time Position Orientation Groundspeed Altitude Reporting Facility
EDT Latitude Longitude Course Direction KTS MPH feet Rate Location/Type
06:04AM -37.6634 144.7693 338° Northwest 5,400  Level Aus ATC (Calculated)
06:05AM -37.6533 144.6953 95° East 10,400 -780 Climbing Aus ATC (Calculated)
06:05AM -37.5942 144.6701 130° Southeast 10,400 -3,180 Level Aus ATC (Calculated)
06:06AM -37.5350 144.6450 142° Southeast 10,400 -5,160 Level Aus ATC (Calculated)
06:07AM -37.6582 144.7667 301° West 178 205 2,900 -3,180 Descending Aus ATC (RADAR)
06:07AM -37.6164 144.6781 16° North 273 314 6,800 6,540 Climbing Aus ATC (RADAR)
06:08AM -37.5029 144.7204 56° Northeast 353 406 10,800 6,420 Climbing Aus ATC (RADAR)
06:09AM -37.4273 144.8626 56° Northeast 374 430 15,100 4,920 Climbing Aus ATC (RADAR)
06:09AM -37.3974 144.9175 56° Northeast 383 441 16,600 2,640 Climbing Aus ATC (RADAR)
06:10AM -37.3561 144.9934 55° Northeast 399 459 18,200 2,460 Climbing Aus ATC (RADAR)
06:11AM -37.3178 145.0624 55° Northeast 416 479 19,700 2,580 Climbing Aus ATC (RADAR)
06:12AM -37.2398 145.2025 55° Northeast 428 493 22,700 2,400 Climbing Aus ATC (RADAR)
06:12AM -37.1995 145.2748 55° Northeast 438 504 23,900 2,040 Climbing Aus ATC (RADAR)
06:13AM -37.1578 145.3486 55° Northeast 448 516 25,100 2,040 Climbing Aus ATC (RADAR)
06:14AM -37.1098 145.4341 55° Northeast 454 522 26,500 1,920 Climbing Aus ATC (RADAR)
06:14AM -37.0733 145.4989 55° Northeast 459 528 27,400 1,980 Climbing Aus ATC (RADAR)
06:15AM -37.0305 145.5759 54° Northeast 462 532 28,700 1,260 Climbing Aus ATC (RADAR)
06:15AM -36.9922 145.6426 54° Northeast 475 547 28,800 180 Climbing Aus ATC (RADAR)
06:16AM -36.9453 145.7243 55° Northeast 500 575 28,900 720 Climbing Aus ATC (RADAR)
06:16AM -36.8973 145.8093 54° Northeast 514 592 29,700 1,200 Climbing Aus ATC (RADAR)
06:17AM -36.8411 145.9072 55° Northeast 522 601 30,400 2,820 Climbing Aus ATC (RADAR)
06:18AM -36.7687 146.0349 55° Northeast 478 550 34,200 3,360 Climbing Aus ATC (RADAR)
06:19AM -36.7205 146.1200 54° Northeast 446 513 35,800 1,440 Climbing Aus ATC (RADAR)
06:20AM -36.6481 146.2454 54° Northeast 446 513 36,600 600 Climbing Aus ATC (RADAR)
06:20AM -36.6043 146.3204 53° Northeast 461 531 36,800 480 Climbing Aus ATC (RADAR)
06:21AM -36.5598 146.3950 55° Northeast 458 527 37,200 300 Climbing Aus ATC (RADAR)
06:21AM -36.5166 146.4705 54° Northeast 459 528 37,200  Level Aus ATC (RADAR)
06:22AM -36.4605 146.5673 54° Northeast 459 528 37,200  Level Aus ATC (RADAR)
06:23AM -36.3931 146.6842 54° Northeast 447 514 37,200  Level Aus ATC (RADAR)
06:24AM -36.3377 146.7791 54° Northeast 451 519 37,200  Level Aus ATC (RADAR)
06:25AM -36.2699 146.8942 54° Northeast 448 516 37,200  Level Aus ATC (RADAR)
06:25AM -36.2205 146.9775 54° Northeast 446 513 37,200  Level Aus ATC (RADAR)
06:26AM -36.1835 147.0403 54° Northeast 447 514 37,200  Level Aus ATC (RADAR)
06:26AM -36.1404 147.1135 54° Northeast 449 517 37,200  Level Aus ATC (RADAR)
06:27AM -36.0844 147.2074 54° Northeast 451 519 37,200  Level Aus ATC (RADAR)
06:28AM -36.0471 147.2700 54° Northeast 450 518 37,200  Level Aus ATC (RADAR)
06:28AM -36.0044 147.3430 53° Northeast 449 517 37,200  Level Aus ATC (RADAR)
06:29AM -35.9546 147.4253 54° Northeast 446 513 37,200  Level Aus ATC (RADAR)
06:29AM -35.9179 147.4884 53° Northeast 450 518 37,200  Level Aus ATC (RADAR)
06:30AM -35.8684 147.5706 54° Northeast 444 511 37,200  Level Aus ATC (RADAR)
06:31AM -35.7951 147.6955 53° Northeast 449 517 37,200  Level Aus ATC (RADAR)
06:32AM -35.7517 147.7676 53° Northeast 447 514 37,200  Level Aus ATC (RADAR)
06:32AM -35.7076 147.8391 53° Northeast 446 513 37,200  Level Aus ATC (RADAR)
06:33AM -35.6703 147.9010 53° Northeast 447 514 37,200  Level Aus ATC (RADAR)
06:33AM -35.6204 147.9836 55° Northeast 450 518 37,200  Level Aus ATC (RADAR)
06:34AM -35.5787 148.0579 57° Northeast 449 517 37,200  Level Aus ATC (RADAR)
06:34AM -35.5388 148.1341 57° Northeast 452 520 37,200 -300 Level Aus ATC (RADAR)
06:35AM -35.5042 148.1987 57° Northeast 449 517 36,900 -840 Descending Aus ATC (RADAR)
06:36AM -35.4646 148.2730 57° Northeast 440 506 36,300 -660 Descending Aus ATC (RADAR)
06:36AM -35.4311 148.3358 56° Northeast 436 502 36,200 -180 Descending Aus ATC (RADAR)
06:37AM -35.3860 148.4188 57° Northeast 436 502 36,100  Descending Aus ATC (RADAR)
06:37AM -35.3469 148.4925 57° Northeast 436 502 36,200 60 Climbing Aus ATC (RADAR)
06:38AM -35.2974 148.5871 57° Northeast 436 502 36,200  Level Aus ATC (RADAR)
06:39AM -35.2369 148.7019 57° Northeast 434 499 36,200  Level Aus ATC (RADAR)
06:40AM -35.1930 148.7853 57° Northeast 435 501 36,200  Level Aus ATC (RADAR)
06:40AM -35.1544 148.8578 56° Northeast 431 496 36,200  Level Aus ATC (RADAR)
06:41AM -35.1212 148.9189 56° Northeast 429 494 36,200  Level Aus ATC (RADAR)
06:41AM -35.0765 149.0001 56° Northeast 427 491 36,200  Level Aus ATC (RADAR)
06:42AM -35.0378 149.0710 56° Northeast 425 489 36,200  Level Aus ATC (RADAR)
06:43AM -34.9824 149.1724 56° Northeast 428 493 36,200  Level Aus ATC (RADAR)
06:44AM -34.9211 149.2846 56° Northeast 427 491 36,200  Level Aus ATC (RADAR)
06:44AM -34.8768 149.3655 56° Northeast 428 493 36,200  Level Aus ATC (RADAR)
06:45AM -34.8379 149.4359 56° Northeast 425 489 36,200 -540 Level Aus ATC (RADAR)
06:46AM -34.7989 149.5069 56° Northeast 424 488 35,600 -2,580 Descending Aus ATC (RADAR)
06:46AM -34.7593 149.5778 56° Northeast 426 490 33,200 -3,540 Descending Aus ATC (RADAR)
06:47AM -34.7183 149.6508 56° Northeast 436 502 31,500 -2,700 Descending Aus ATC (RADAR)
06:47AM -34.6673 149.7439 56° Northeast 429 494 29,600 -2,760 Descending Aus ATC (RADAR)
06:48AM -34.5984 149.8676 55° Northeast 436 502 26,700 -2,460 Descending Aus ATC (RADAR)
06:49AM -34.5581 149.9385 56° Northeast 428 493 25,800 -2,040 Descending Aus ATC (RADAR)
06:50AM -34.5140 150.0176 56° Northeast 412 474 24,200 -2,520 Descending Aus ATC (RADAR)
06:50AM -34.4758 150.0860 56° Northeast 410 472 22,700 -2,400 Descending Aus ATC (RADAR)
06:51AM -34.4331 150.1615 55° Northeast 397 457 21,200 -2,280 Descending Aus ATC (RADAR)
06:51AM -34.4016 150.2171 56° Northeast 390 449 20,100 -2,220 Descending Aus ATC (RADAR)
06:52AM -34.3658 150.2812 56° Northeast 384 442 18,800 -2,100 Descending Aus ATC (RADAR)
06:53AM -34.3210 150.3607 56° Northeast 369 425 17,300 -2,100 Descending Aus ATC (RADAR)
06:53AM -34.2870 150.4208 65° Northeast 361 415 16,000 -2,160 Descending Aus ATC (RADAR)
06:54AM -34.2617 150.4858 82° East 355 409 14,800 -1,980 Descending Aus ATC (RADAR)
06:55AM -34.2532 150.5547 82° East 341 392 13,700 -1,800 Descending Aus ATC (RADAR)
06:55AM -34.2450 150.6244 82° East 350 403 12,700 -2,160 Descending Aus ATC (RADAR)
06:56AM -34.2353 150.7059 82° East 351 404 11,000 -2,520 Descending Aus ATC (RADAR)
06:56AM -34.2269 150.7751 82° East 341 392 9,600 -2,700 Descending Aus ATC (RADAR)
06:58AM -34.2094 150.9237 82° East 342 394 6,100 -2,220 Descending Aus ATC (RADAR)
06:58AM -34.2013 150.9897 81° East 324 373 5,600 -780 Descending Aus ATC (RADAR)
06:59AM -34.1936 151.0499 81° East 298 343 5,200 -660 Descending Aus ATC (RADAR)
06:59AM -34.1854 151.1127 82° East 270 311 4,800 -720 Descending Aus ATC (RADAR)
07:00AM -34.1800 151.1565 78° East 253 291 4,400 -960 Descending Aus ATC (RADAR)
07:01AM -34.1716 151.2048 24° Northeast 244 281 3,800 -840 Descending Aus ATC (RADAR)
07:01AM -34.1347 151.2248 348° North 220 253 3,400 -900 Descending Aus ATC (RADAR)
07:02AM -34.1014 151.2165 348° North 210 242 2,700 -1,140 Descending Aus ATC (RADAR)
07:02AM -34.0638 151.2066 348° North 204 235 2,000 -960 Descending Aus ATC (RADAR)
07:03AM -34.0171 151.1946 348° North 149 171 1,100 -840 Descending Aus ATC (RADAR)
07:04AM -33.9962 151.1891 348° North 130 150 700 -720 Descending Aus ATC (RADAR)
07:05AM -33.9723 151.1829 348° North 134 154 200 -780 Descending Aus ATC (RADAR)